Time;durP1;ratioP1;P1;durP2;ratioP2;P2;SDS_P1;SDS_P2;PMS_P1;PMS_P2;Temp;Humidity;BMP_temperature;BMP_pressure;BME280_temperature;BME280_humidity;BME280_pressure;Samples;Min_cycle;Max_cycle;Signal;HPM_P1;HPM_P2
2021/01/12 00:00:20;;;;;;;42.92;20.40;;;;;;;-4.08;66.69;95464.75;4988545;28;20113;-62
2021/01/12 00:02:45;;;;;;;40.70;21.02;;;;;;;-4.06;66.14;95452.34;4990523;28;20026;-61
2021/01/12 00:05:12;;;;;;;42.95;20.92;;;;;;;-3.83;65.98;95468.25;4971319;28;20039;-61
2021/01/12 00:07:37;;;;;;;39.38;19.80;;;;;;;-4.02;65.88;95430.94;4988767;28;20113;-62
2021/01/12 00:10:04;;;;;;;41.88;19.60;;;;;;;-4.14;65.54;95417.00;4990995;28;20046;-61
2021/01/12 00:12:29;;;;;;;39.95;20.20;;;;;;;-3.80;65.56;95436.63;4992384;28;20109;-61
2021/01/12 00:14:55;;;;;;;40.40;20.85;;;;;;;-3.75;65.70;95426.41;4994488;28;20117;-63
2021/01/12 00:17:20;;;;;;;40.38;19.63;;;;;;;-3.41;65.03;95464.25;4992482;28;20047;-62
2021/01/12 00:19:45;;;;;;;46.47;20.42;;;;;;;-3.33;65.18;95452.00;4992207;28;20097;-62
2021/01/12 00:22:14;;;;;;;42.60;21.38;;;;;;;-3.22;64.44;95448.75;4974824;28;20038;-63
2021/01/12 00:24:50;;;;;;;28.83;17.85;;;;;;;-3.02;64.20;95452.03;4992210;28;20440;-63
2021/01/12 00:27:17;;;;;;;34.38;19.00;;;;;;;-2.89;63.96;95441.50;4994329;28;20041;-62
2021/01/12 00:29:43;;;;;;;37.05;19.05;;;;;;;-2.77;63.12;95428.56;4992443;28;20045;-62
2021/01/12 00:32:25;;;;;;;38.38;19.95;;;;;;;-2.85;63.55;95382.00;4991939;28;20145;-62
2021/01/12 00:34:52;;;;;;;38.88;19.80;;;;;;;-2.70;63.19;95400.69;4992288;28;20142;-61
2021/01/12 00:37:24;;;;;;;38.33;19.50;;;;;;;-2.49;62.52;95427.34;4974464;28;20038;-61
2021/01/12 00:39:50;;;;;;;39.75;18.63;;;;;;;-2.48;62.17;95423.72;4974636;28;20109;-61
2021/01/12 00:42:15;;;;;;;33.88;18.38;;;;;;;-2.32;61.52;95436.19;4993827;28;20030;-61
2021/01/12 00:44:41;;;;;;;36.17;19.42;;;;;;;-2.31;61.42;95442.19;4991999;28;20031;-62
2021/01/12 00:47:07;;;;;;;36.00;18.95;;;;;;;-2.27;61.54;95453.78;4992003;28;20049;-62
2021/01/12 00:49:33;;;;;;;32.20;18.00;;;;;;;-2.31;61.21;95461.22;4974234;28;20057;-62
2021/01/12 00:51:58;;;;;;;35.05;19.10;;;;;;;-2.42;61.78;95425.47;4973966;28;20137;-62
2021/01/12 00:54:24;;;;;;;35.25;19.95;;;;;;;-2.33;60.46;95452.84;4991567;28;20039;-62
2021/01/12 00:56:51;;;;;;;34.05;18.65;;;;;;;-2.49;60.99;95432.56;4993634;28;20031;-61
2021/01/12 00:59:17;;;;;;;32.83;18.95;;;;;;;-2.66;61.47;95448.75;4991336;28;20129;-61
2021/01/12 01:01:43;;;;;;;33.53;19.30;;;;;;;-2.63;61.36;95404.03;4991502;28;20129;-61
2021/01/12 01:04:09;;;;;;;34.45;19.05;;;;;;;-2.40;61.21;95413.03;4974082;28;20141;-61
2021/01/12 01:06:35;;;;;;;31.02;18.65;;;;;;;-2.22;61.19;95435.69;4991321;28;20030;-62
2021/01/12 01:09:01;;;;;;;33.20;18.80;;;;;;;-2.19;60.81;95417.81;4993198;28;20092;-62
2021/01/12 01:11:26;;;;;;;33.60;19.23;;;;;;;-2.05;60.58;95413.25;4991265;28;20125;-62
2021/01/12 01:13:51;;;;;;;34.72;18.38;;;;;;;-1.85;60.45;95432.06;4991554;28;20085;-61
2021/01/12 01:16:17;;;;;;;28.95;18.33;;;;;;;-1.98;60.13;95385.31;4991473;28;20050;-62
2021/01/12 01:18:42;;;;;;;30.95;17.80;;;;;;;-1.76;59.77;95410.91;4991081;28;20457;-62
2021/01/12 01:21:12;;;;;;;33.15;18.35;;;;;;;-2.05;59.48;95392.38;4992380;28;20052;-61
2021/01/12 01:23:37;;;;;;;34.83;19.02;;;;;;;-2.16;60.03;95388.72;4973752;28;20041;-61
2021/01/12 01:26:02;;;;;;;31.95;18.63;;;;;;;-1.73;60.26;95434.75;4991164;28;20076;-61
2021/01/12 01:28:27;;;;;;;33.85;18.73;;;;;;;-1.70;59.88;95418.66;4990810;28;20066;-61
2021/01/12 01:30:54;;;;;;;28.77;18.02;;;;;;;-1.52;59.49;95437.91;4973820;28;20048;-61
2021/01/12 01:33:19;;;;;;;33.03;17.75;;;;;;;-1.66;59.13;95401.53;4990799;28;20380;-63
2021/01/12 01:35:47;;;;;;;27.65;17.20;;;;;;;-1.45;59.64;95409.91;4992723;28;20037;-62
2021/01/12 01:38:12;;;;;;;28.92;16.58;;;;;;;-1.36;58.46;95421.63;4990939;28;20049;-61
2021/01/12 01:40:37;;;;;;;24.65;15.73;;;;;;;-1.36;58.21;95411.97;4972791;28;20039;-62
2021/01/12 01:43:03;;;;;;;26.48;17.17;;;;;;;-1.27;58.18;95419.50;4990310;28;20077;-64
2021/01/12 01:45:29;;;;;;;38.72;17.10;;;;;;;-1.29;58.22;95439.78;4990416;28;20030;-61
2021/01/12 01:47:54;;;;;;;28.63;17.77;;;;;;;-2.06;57.87;95325.66;4975305;28;20030;-61
2021/01/12 01:50:34;;;;;;;;;;;;;;;;;;;;;
2021/01/12 01:52:56;;;;;;;23.95;15.68;;;;;;;-1.51;57.90;95426.44;5026660;28;20087;-64
2021/01/12 01:55:23;;;;;;;25.25;16.05;;;;;;;-1.51;58.23;95442.09;5028639;28;20029;-64
2021/01/12 01:57:49;;;;;;;22.80;15.43;;;;;;;-1.37;57.96;95449.53;5029446;28;20040;-64
2021/01/12 02:00:18;;;;;;;25.63;16.33;;;;;;;-1.56;58.12;95445.38;5031603;28;20025;-64
2021/01/12 02:03:00;;;;;;;28.13;16.75;;;;;;;-2.85;58.67;95285.69;5029986;28;20491;-64
2021/01/12 02:05:31;;;;;;;24.05;16.02;;;;;;;-1.70;59.44;95451.75;5029669;28;20041;-63
2021/01/12 02:08:05;;;;;;;25.63;16.02;;;;;;;-1.52;58.33;95415.22;5029737;28;20041;-64
2021/01/12 02:10:35;;;;;;;29.80;18.48;;;;;;;-1.41;58.00;95431.94;5029330;28;20124;-64
2021/01/12 02:13:02;;;;;;;28.92;15.73;;;;;;;-1.47;58.33;95438.03;5029551;28;20041;-64
2021/01/12 02:15:29;;;;;;;28.13;16.95;;;;;;;-1.77;58.25;95412.72;5029218;28;20079;-64
2021/01/12 02:17:55;;;;;;;27.40;16.50;;;;;;;-1.36;57.99;95419.00;5031496;28;20126;-64
2021/01/12 02:20:22;;;;;;;23.75;15.88;;;;;;;-1.53;57.54;95397.97;5029345;28;20049;-65
2021/01/12 02:23:14;;;;;;;25.58;16.42;;;;;;;-1.67;58.22;95386.13;5029386;28;20175;-65
2021/01/12 02:25:41;;;;;;;27.25;16.83;;;;;;;-1.72;58.67;95386.78;5028188;28;20037;-64
2021/01/12 02:28:09;;;;;;;26.77;15.90;;;;;;;-1.35;57.71;95404.94;5029407;28;20048;-64
2021/01/12 02:30:35;;;;;;;24.95;16.50;;;;;;;-1.44;57.81;95375.75;5029238;28;20040;-63
2021/01/12 02:33:02;;;;;;;25.42;15.65;;;;;;;-1.15;57.94;95381.97;5029944;28;20033;-65
2021/01/12 02:35:29;;;;;;;23.63;15.40;;;;;;;-0.90;57.82;95380.97;5027837;28;20402;-64
2021/01/12 02:37:56;;;;;;;23.17;14.93;;;;;;;-0.83;57.11;95363.38;5029106;28;20053;-65
2021/01/12 02:40:22;;;;;;;25.48;15.25;;;;;;;-0.74;56.92;95364.63;5027385;28;20121;-64
2021/01/12 02:42:47;;;;;;;19.27;14.50;;;;;;;-0.93;56.88;95329.19;5028995;28;20574;-65
2021/01/12 02:45:13;;;;;;;23.02;15.55;;;;;;;-0.98;56.55;95331.69;5030989;28;20029;-64
2021/01/12 02:47:38;;;;;;;28.02;16.33;;;;;;;-1.13;56.55;95334.75;5028680;28;20513;-64
2021/01/12 02:50:05;;;;;;;23.02;15.70;;;;;;;-1.52;57.02;95355.22;5028921;28;20045;-64
2021/01/12 02:52:30;;;;;;;24.15;14.93;;;;;;;-1.35;57.55;95364.00;5028503;28;20041;-63
2021/01/12 02:54:56;;;;;;;23.98;14.65;;;;;;;-1.72;57.83;95365.91;5028950;28;20041;-64
2021/01/12 02:57:21;;;;;;;26.63;16.27;;;;;;;-1.76;58.17;95379.63;5028675;28;20079;-64
2021/01/12 02:59:46;;;;;;;27.10;15.65;;;;;;;-1.77;57.89;95360.56;5030459;28;20037;-64
2021/01/12 03:02:11;;;;;;;26.70;16.02;;;;;;;-2.52;59.07;95332.19;5028649;28;20049;-64
2021/01/12 03:04:37;;;;;;;21.33;14.77;;;;;;;-2.38;59.13;95354.50;5028580;28;20400;-64
2021/01/12 03:07:02;;;;;;;24.27;15.60;;;;;;;-2.14;59.85;95360.63;5029163;28;20044;-64
2021/01/12 03:09:27;;;;;;;22.33;15.15;;;;;;;-2.21;59.79;95369.53;5028188;28;20037;-63
2021/01/12 03:11:53;;;;;;;26.90;15.63;;;;;;;-2.13;60.03;95370.03;5029350;28;20649;-64
2021/01/12 03:14:18;;;;;;;24.65;15.98;;;;;;;-2.55;60.49;95326.66;5028310;28;20056;-65
2021/01/12 03:16:44;;;;;;;23.77;14.82;;;;;;;-2.48;60.31;95358.63;5028542;28;20080;-64
2021/01/12 03:19:09;;;;;;;24.52;15.88;;;;;;;-2.36;60.26;95338.63;5027062;28;20046;-64
2021/01/12 03:21:34;;;;;;;28.00;16.05;;;;;;;-2.33;60.13;95317.38;5026992;28;20090;-65
2021/01/12 03:24:00;;;;;;;27.38;16.35;;;;;;;-2.36;60.15;95336.81;5029953;28;20140;-65
2021/01/12 03:26:25;;;;;;;27.42;16.73;;;;;;;-1.99;60.05;95333.41;5028621;28;20050;-64
2021/01/12 03:28:50;;;;;;;21.85;15.30;;;;;;;-2.08;59.16;95312.06;5028144;28;20114;-64
2021/01/12 03:31:16;;;;;;;23.52;14.57;;;;;;;-2.28;59.26;95299.25;5028386;28;20053;-64
2021/01/12 03:33:41;;;;;;;25.92;15.57;;;;;;;-2.49;60.45;95289.31;5028307;28;20037;-64
2021/01/12 03:36:07;;;;;;;26.38;15.90;;;;;;;-2.33;60.20;95306.94;5030302;28;20029;-64
2021/01/12 03:38:32;;;;;;;25.83;16.77;;;;;;;-2.13;59.97;95317.13;5028325;28;20045;-64
2021/01/12 03:40:58;;;;;;;28.30;16.75;;;;;;;-2.17;60.10;95308.94;5027229;28;20045;-64
2021/01/12 03:43:23;;;;;;;27.05;15.88;;;;;;;-2.14;59.49;95316.34;5028489;28;20045;-64
2021/01/12 03:45:49;;;;;;;25.77;14.95;;;;;;;-2.69;60.93;95298.13;5032635;28;20124;-64
2021/01/12 03:48:14;;;;;;;25.20;16.02;;;;;;;-2.73;62.17;95320.41;5034307;28;20056;-64
2021/01/12 03:50:39;;;;;;;27.98;16.42;;;;;;;-2.33;60.68;95293.91;5032547;28;20491;-63
2021/01/12 03:53:05;;;;;;;26.73;16.63;;;;;;;-2.21;59.74;95286.94;5032251;28;20041;-64
2021/01/12 03:55:30;;;;;;;25.92;16.25;;;;;;;-2.29;60.43;95294.28;5032434;28;20095;-64
2021/01/12 03:57:56;;;;;;;26.42;16.35;;;;;;;-2.06;59.63;95293.56;5032163;28;20050;-64
2021/01/12 04:00:21;;;;;;;26.17;16.40;;;;;;;-2.22;60.07;95282.75;5032215;28;20617;-63
2021/01/12 04:02:47;;;;;;;25.52;16.38;;;;;;;-2.27;60.47;95303.47;5034023;28;20112;-63
2021/01/12 04:05:12;;;;;;;24.17;15.73;;;;;;;-2.04;59.36;95281.13;5032330;28;20440;-64
2021/01/12 04:07:38;;;;;;;29.13;15.70;;;;;;;-2.04;59.69;95302.00;5032152;28;20494;-64
2021/01/12 04:10:05;;;;;;;24.17;15.40;;;;;;;-2.34;60.10;95302.75;5030617;28;20490;-63
2021/01/12 04:12:30;;;;;;;22.48;14.98;;;;;;;-2.01;59.55;95299.72;5032007;28;20033;-65
2021/01/12 04:14:55;;;;;;;23.77;14.63;;;;;;;-2.42;60.37;95292.63;5033978;28;20032;-63
2021/01/12 04:17:21;;;;;;;28.23;15.30;;;;;;;-2.28;60.20;95286.25;5030776;28;20546;-65
2021/01/12 04:19:46;;;;;;;22.08;15.07;;;;;;;-2.37;60.61;95271.91;5031848;28;20041;-65
2021/01/12 04:22:11;;;;;;;24.20;15.57;;;;;;;-1.92;59.10;95272.31;5031718;28;20449;-64
2021/01/12 04:24:36;;;;;;;25.27;16.15;;;;;;;-2.01;58.90;95246.78;5031832;28;20045;-65
2021/01/12 04:27:02;;;;;;;22.67;14.85;;;;;;;-2.00;59.16;95267.41;5033835;28;20028;-65
2021/01/12 04:29:28;;;;;;;23.63;14.50;;;;;;;-1.98;58.70;95241.16;5031382;28;20037;-64
2021/01/12 04:31:53;;;;;;;24.90;15.27;;;;;;;-1.91;59.23;95244.44;5030360;28;20041;-63
2021/01/12 04:34:18;;;;;;;19.48;14.10;;;;;;;-2.23;59.82;95239.47;5030284;28;20095;-63
2021/01/12 04:36:43;;;;;;;21.52;13.93;;;;;;;-2.10;58.48;95230.66;5031659;28;20124;-65
2021/01/12 04:39:09;;;;;;;21.08;13.88;;;;;;;-1.98;59.35;95217.69;5033301;28;20048;-63
2021/01/12 04:41:34;;;;;;;20.90;14.38;;;;;;;-1.77;58.82;95217.16;5031259;28;20045;-62
2021/01/12 04:44:01;;;;;;;19.95;13.57;;;;;;;-2.12;58.79;95206.66;5031364;28;20041;-65
2021/01/12 04:46:26;;;;;;;25.70;14.07;;;;;;;-2.14;59.18;95224.34;5030222;28;20682;-64
2021/01/12 04:48:51;;;;;;;23.90;13.82;;;;;;;-2.25;60.32;95223.28;5029996;28;20034;-63
2021/01/12 04:51:16;;;;;;;15.63;9.02;;;;;;;-2.68;61.85;95219.00;5031149;28;20571;-64
2021/01/12 04:53:47;;;;;;;23.52;14.88;;;;;;;-2.23;60.91;95226.44;5033180;28;20036;-64
2021/01/12 04:56:16;;;;;;;26.02;14.23;;;;;;;-2.32;61.58;95240.00;5030258;28;20048;-63
2021/01/12 04:58:44;;;;;;;23.80;15.25;;;;;;;-2.07;61.49;95232.84;5030812;28;20036;-63
2021/01/12 05:01:14;;;;;;;23.83;15.70;;;;;;;-2.27;61.58;95214.09;5031138;28;20102;-63
2021/01/12 05:03:44;;;;;;;25.60;16.08;;;;;;;-1.77;60.20;95242.44;5031102;28;20029;-65
2021/01/12 05:06:13;;;;;;;27.98;16.67;;;;;;;-2.01;60.63;95208.50;5032849;28;20029;-63
2021/01/12 05:08:54;;;;;;;25.25;15.52;;;;;;;-1.87;60.99;95222.91;5030660;28;20037;-63
2021/01/12 05:11:20;;;;;;;27.77;16.00;;;;;;;-1.93;60.22;95223.81;5030716;28;20033;-64
2021/01/12 05:13:47;;;;;;;23.63;15.23;;;;;;;-2.13;61.06;95197.25;5030669;28;20040;-64
2021/01/12 05:16:12;;;;;;;28.25;16.23;;;;;;;-1.52;60.25;95213.56;5029495;28;20041;-64
2021/01/12 05:18:40;;;;;;;27.13;16.23;;;;;;;-1.52;59.78;95184.88;5029014;28;20044;-64
2021/01/12 05:21:09;;;;;;;24.80;15.77;;;;;;;-1.39;59.70;95193.25;5032720;28;20022;-68
2021/01/12 05:23:49;;;;;;;30.55;17.08;;;;;;;-1.27;58.95;95195.06;5030651;28;20511;-64
2021/01/12 05:26:17;;;;;;;24.10;16.15;;;;;;;-1.25;58.95;95174.75;5029463;28;20049;-64
2021/01/12 05:28:42;;;;;;;25.83;16.02;;;;;;;-1.58;58.84;95171.72;5029236;28;20073;-64
2021/01/12 05:31:10;;;;;;;25.73;16.33;;;;;;;-1.42;58.86;95183.28;5029287;28;20188;-64
2021/01/12 05:33:38;;;;;;;26.10;15.75;;;;;;;-1.46;58.91;95165.69;5030340;28;20034;-63
2021/01/12 05:36:04;;;;;;;25.73;16.13;;;;;;;-1.39;58.81;95164.53;5032343;28;20080;-65
2021/01/12 05:38:31;;;;;;;26.33;15.80;;;;;;;-1.16;58.31;95168.94;5028939;28;20124;-64
2021/01/12 05:40:59;;;;;;;23.00;15.32;;;;;;;-1.06;58.05;95187.44;5029082;28;20034;-63
2021/01/12 05:43:51;;;;;;;22.33;15.40;;;;;;;-0.94;58.12;95199.66;5030013;28;20061;-63
2021/01/12 05:46:16;;;;;;;20.95;13.80;;;;;;;-0.95;58.38;95187.66;5025060;28;20037;-64
2021/01/12 05:48:44;;;;;;;21.48;14.23;;;;;;;-1.11;57.97;95152.59;5030037;28;20041;-64
2021/01/12 05:51:13;;;;;;;21.20;14.02;;;;;;;-1.17;57.88;95148.31;5031900;28;20021;-68
2021/01/12 05:53:50;;;;;;;23.08;14.57;;;;;;;-0.93;58.93;95167.31;5029963;28;20048;-62
2021/01/12 05:56:21;;;;;;;19.30;13.57;;;;;;;-0.87;58.94;95155.94;5030050;28;20045;-64
2021/01/12 05:58:51;;;;;;;21.73;14.18;;;;;;;-1.08;59.87;95147.69;5030028;28;20156;-63
2021/01/12 06:01:35;;;;;;;21.50;13.73;;;;;;;-0.81;59.29;95161.03;5031076;28;20072;-66
2021/01/12 06:04:07;;;;;;;19.65;13.75;;;;;;;-0.97;59.71;95148.72;5031163;28;20052;-61
2021/01/12 06:06:33;;;;;;;;;;;;;;;-1.25;61.61;95159.88;5031150;28;20483;-59
2021/01/12 06:08:58;;;;;;;17.95;12.55;;;;;;;-1.48;62.07;95134.63;5032656;28;19920;-61
2021/01/12 06:11:26;;;;;;;17.38;11.85;;;;;;;-1.35;62.98;95151.84;5030859;28;20041;-62
2021/01/12 06:13:54;;;;;;;16.20;11.52;;;;;;;-1.20;62.77;95154.78;5031006;28;20033;-63
2021/01/12 06:16:23;;;;;;;15.30;11.75;;;;;;;-1.38;63.68;95147.09;5030701;28;20037;-64
2021/01/12 06:19:12;;;;;;;17.75;12.05;;;;;;;-1.20;63.84;95146.16;5030168;28;20048;-64
2021/01/12 06:21:52;;;;;;;15.00;11.45;;;;;;;-0.80;62.39;95138.34;5030173;28;20137;-63
2021/01/12 06:24:28;;;;;;;16.75;10.25;;;;;;;-1.16;63.46;95132.41;5029421;28;20438;-67
2021/01/12 06:26:53;;;;;;;13.45;10.45;;;;;;;-1.23;65.45;95138.78;5032480;28;20033;-63
2021/01/12 06:29:19;;;;;;;13.50;9.48;;;;;;;-1.42;67.17;95138.91;5029026;28;20041;-70
2021/01/12 06:31:46;;;;;;;12.93;8.55;;;;;;;-1.27;66.91;95096.69;5022308;28;20038;-69
2021/01/12 06:34:19;;;;;;;11.02;8.23;;;;;;;-0.97;67.39;95113.97;5030617;28;20102;-69
2021/01/12 06:36:58;;;;;;;12.40;8.95;;;;;;;-0.73;66.46;95094.56;5030584;28;20462;-68
2021/01/12 06:39:29;;;;;;;10.35;7.97;;;;;;;-0.64;67.01;95108.84;5030169;28;20117;-66
2021/01/12 06:41:54;;;;;;;9.02;7.45;;;;;;;-0.65;66.77;95069.91;5030789;28;20029;-67
2021/01/12 06:44:25;;;;;;;11.35;7.97;;;;;;;-0.30;65.57;95093.25;5030173;28;20033;-73
2021/01/12 06:46:54;;;;;;;9.15;7.32;;;;;;;-0.57;66.70;95085.19;5030445;28;20045;-73
2021/01/12 06:49:24;;;;;;;8.73;7.82;;;;;;;-0.18;65.56;95109.63;5030010;28;20047;-71
2021/01/12 06:52:07;;;;;;;8.63;7.03;;;;;;;-0.40;65.62;95077.38;5029972;28;20052;-77
2021/01/12 06:54:38;;;;;;;;;;;;;;;-0.16;65.08;95091.09;5029153;28;20029;-62
2021/01/12 06:57:12;;;;;;;8.15;6.70;;;;;;;-0.09;65.11;95086.50;5031597;28;19913;-63
2021/01/12 06:59:42;;;;;;;8.35;6.25;;;;;;;-0.29;65.02;95058.22;5027951;28;20064;-64
2021/01/12 07:02:14;;;;;;;7.95;6.28;;;;;;;0.11;64.92;95088.63;5029656;28;20045;-65
2021/01/12 07:04:39;;;;;;;7.55;6.05;;;;;;;-0.10;64.71;95072.66;5029936;28;20080;-66
2021/01/12 07:07:06;;;;;;;8.68;6.53;;;;;;;0.20;64.03;95089.81;5028498;28;20053;-66
2021/01/12 07:09:31;;;;;;;6.78;5.78;;;;;;;-0.87;64.65;94957.47;5029299;28;20042;-66
2021/01/12 07:12:08;;;;;;;6.68;5.20;;;;;;;-0.21;65.83;95070.88;5030144;28;20052;-66
2021/01/12 07:14:46;;;;;;;6.75;5.63;;;;;;;-0.34;66.18;95065.97;5029619;28;20472;-65
2021/01/12 07:17:11;;;;;;;6.43;5.05;;;;;;;0.03;65.76;95084.59;5028026;28;20132;-69
2021/01/12 07:19:37;;;;;;;5.70;5.05;;;;;;;0.22;64.85;95070.22;5028990;28;20460;-66
2021/01/12 07:22:18;;;;;;;5.88;4.57;;;;;;;-0.01;65.39;95054.72;5029654;28;20498;-65
2021/01/12 07:24:45;;;;;;;6.47;5.13;;;;;;;0.49;64.75;95067.72;5029759;28;20443;-68
2021/01/12 07:27:14;;;;;;;6.22;5.05;;;;;;;0.54;64.15;95051.28;5030114;28;20284;-64
2021/01/12 07:29:51;;;;;;;5.43;4.55;;;;;;;0.55;63.18;95026.69;5029103;28;20046;-63
2021/01/12 07:32:53;;;;;;;7.03;4.53;;;;;;;0.40;64.82;95055.28;5029509;28;20030;-64
2021/01/12 07:35:18;;;;;;;4.75;4.28;;;;;;;0.64;65.35;95071.56;5022596;28;20056;-63
2021/01/12 07:37:44;;;;;;;4.82;3.80;;;;;;;0.73;64.45;95038.69;5029499;28;20037;-64
2021/01/12 07:40:13;;;;;;;4.53;3.72;;;;;;;0.67;65.08;95039.69;5027885;28;20084;-63
2021/01/12 07:42:46;;;;;;;8.43;4.13;;;;;;;0.29;66.35;95007.25;5029140;28;20081;-64
2021/01/12 07:45:13;;;;;;;4.50;3.92;;;;;;;0.48;65.44;95032.13;5031260;28;20053;-62
2021/01/12 07:47:39;;;;;;;4.22;3.78;;;;;;;1.13;64.37;95038.34;5027968;28;20053;-62
2021/01/12 07:50:06;;;;;;;3.65;3.20;;;;;;;0.91;64.31;95033.13;5027826;28;20041;-63
2021/01/12 07:52:32;;;;;;;4.30;3.10;;;;;;;0.89;64.63;95032.59;5029391;28;20045;-62
2021/01/12 07:54:58;;;;;;;4.30;3.22;;;;;;;0.46;65.14;95000.19;5029315;28;20041;-63
2021/01/12 07:57:24;;;;;;;4.85;3.35;;;;;;;0.85;64.15;95010.53;5027522;28;20083;-64
2021/01/12 07:59:51;;;;;;;4.30;3.22;;;;;;;0.79;63.51;94972.25;5030681;28;20030;-63
2021/01/12 08:02:16;;;;;;;3.72;3.33;;;;;;;1.39;63.41;95034.13;5029183;28;20057;-63
2021/01/12 08:04:42;;;;;;;4.25;3.28;;;;;;;0.47;64.83;94999.13;5029370;28;20033;-63
2021/01/12 08:07:07;;;;;;;3.85;3.40;;;;;;;0.71;65.06;95010.13;5027956;28;20053;-64
2021/01/12 08:09:33;;;;;;;4.20;3.60;;;;;;;0.66;65.55;95017.13;5028620;28;20509;-62
2021/01/12 08:12:01;;;;;;;4.78;3.42;;;;;;;1.15;64.20;95023.16;5031005;28;20079;-64
2021/01/12 08:14:27;;;;;;;3.55;2.88;;;;;;;0.35;63.66;94887.78;5028137;28;20460;-63
2021/01/12 08:16:53;;;;;;;3.60;3.05;;;;;;;1.44;63.54;94991.47;5029044;28;20136;-63
2021/01/12 08:19:28;;;;;;;3.97;3.38;;;;;;;0.44;63.85;94918.50;5028846;28;20487;-63
2021/01/12 08:21:54;;;;;;;4.45;3.67;;;;;;;1.43;63.03;94972.28;5027175;28;20041;-63
2021/01/12 08:24:23;;;;;;;3.33;2.75;;;;;;;2.16;61.89;95006.66;5027596;28;20471;-64
2021/01/12 08:26:49;;;;;;;3.42;3.13;;;;;;;1.85;62.23;94984.69;5030687;28;20037;-64
2021/01/12 08:29:23;;;;;;;3.92;2.83;;;;;;;1.89;61.54;95001.47;5028426;28;20475;-63
2021/01/12 08:31:54;;;;;;;2.92;2.60;;;;;;;2.49;61.29;95002.88;5032161;28;20072;-64
2021/01/12 08:34:22;;;;;;;3.50;2.80;;;;;;;2.08;62.15;94973.00;5032363;28;20491;-65
2021/01/12 08:36:49;;;;;;;3.67;2.70;;;;;;;1.80;62.00;94940.06;5032638;28;20079;-65
2021/01/12 08:39:15;;;;;;;3.78;2.60;;;;;;;2.62;61.04;95003.47;5034273;28;20056;-64
2021/01/12 08:41:46;;;;;;;4.18;2.75;;;;;;;2.57;60.84;94973.50;5032136;28;20124;-65
2021/01/12 08:44:15;;;;;;;2.50;2.30;;;;;;;2.14;61.94;94984.31;5032326;28;20046;-64
2021/01/12 08:46:41;;;;;;;2.60;2.35;;;;;;;2.56;61.67;94984.28;5030856;28;20172;-65
2021/01/12 08:49:06;;;;;;;2.83;2.22;;;;;;;2.11;61.81;94948.09;5031907;28;20460;-66
2021/01/12 08:51:32;;;;;;;2.40;2.20;;;;;;;2.81;61.38;94973.03;5031905;28;20044;-64
2021/01/12 08:53:58;;;;;;;2.67;2.38;;;;;;;2.59;61.61;94970.59;5034034;28;20056;-65
2021/01/12 08:56:24;;;;;;;2.35;2.00;;;;;;;2.46;61.63;94945.63;5032177;28;20071;-65
2021/01/12 08:58:49;;;;;;;2.65;2.00;;;;;;;2.74;61.17;94962.78;5031173;28;20044;-65
2021/01/12 09:01:26;;;;;;;2.10;1.90;;;;;;;2.74;61.05;94919.97;5031835;28;20418;-66
2021/01/12 09:04:07;;;;;;;2.00;1.73;;;;;;;3.04;60.21;94917.38;5032081;28;20045;-64
2021/01/12 09:06:33;;;;;;;1.50;1.30;;;;;;;2.51;62.38;94960.63;5032162;28;20033;-65
2021/01/12 09:09:09;;;;;;;4.65;2.33;;;;;;;2.54;62.19;94931.22;5033662;28;20033;-65
2021/01/12 09:11:59;;;;;;;1.83;1.58;;;;;;;2.59;61.78;94958.25;5031816;28;20045;-64
2021/01/12 09:14:26;;;;;;;1.40;1.30;;;;;;;2.59;61.39;94939.88;5030611;28;20624;-64
2021/01/12 09:17:04;;;;;;;2.42;1.88;;;;;;;2.67;61.99;94964.88;5031760;28;20057;-64
2021/01/12 09:19:35;;;;;;;2.05;1.50;;;;;;;2.50;62.15;94932.75;5031771;28;20073;-65
2021/01/12 09:22:08;;;;;;;1.60;1.50;;;;;;;2.77;61.67;94954.41;5031396;28;20091;-63
2021/01/12 09:24:34;;;;;;;1.80;1.52;;;;;;;2.09;63.43;94919.47;5031466;28;20483;-63
2021/01/12 09:27:01;;;;;;;1.77;1.67;;;;;;;2.89;61.56;94950.75;5033639;28;20021;-63
2021/01/12 09:29:28;;;;;;;1.58;1.42;;;;;;;2.89;61.78;94908.72;5030770;28;20490;-64
2021/01/12 09:31:53;;;;;;;1.77;1.63;;;;;;;2.95;62.17;94921.56;5030322;28;20426;-65
2021/01/12 09:34:20;;;;;;;1.38;1.27;;;;;;;2.92;61.28;94911.59;5031425;28;20050;-66
2021/01/12 09:36:45;;;;;;;1.63;1.52;;;;;;;3.50;59.89;94920.03;5031501;28;20048;-65
2021/01/12 09:39:14;;;;;;;2.25;2.05;;;;;;;3.15;60.22;94909.50;5033019;28;20021;-65
2021/01/12 09:41:40;;;;;;;2.33;1.70;;;;;;;3.34;60.54;94924.50;5029402;28;20030;-65
2021/01/12 09:44:06;;;;;;;4.10;2.15;;;;;;;3.27;60.26;94916.06;5031352;28;20057;-65
2021/01/12 09:46:32;;;;;;;2.00;1.80;;;;;;;3.08;59.80;94873.78;5030175;28;20080;-64
2021/01/12 09:48:58;;;;;;;1.85;1.25;;;;;;;3.19;59.85;94871.16;5029988;28;20048;-66
2021/01/12 09:51:25;;;;;;;1.50;1.33;;;;;;;3.17;60.55;94921.31;5030989;28;20033;-66
2021/01/12 09:53:50;;;;;;;1.27;1.17;;;;;;;3.48;59.91;94918.69;5031874;28;20094;-65
2021/01/12 09:56:17;;;;;;;1.40;1.30;;;;;;;3.24;60.60;94923.72;5029776;28;20491;-65
2021/01/12 09:58:44;;;;;;;2.90;1.58;;;;;;;3.66;59.67;94912.91;5028749;28;20573;-64
2021/01/12 10:01:09;;;;;;;1.60;1.20;;;;;;;2.83;61.13;94868.50;5030903;28;20053;-65
2021/01/12 10:03:35;;;;;;;2.42;1.17;;;;;;;2.95;62.12;94876.91;5030791;28;20025;-64
2021/01/12 10:06:00;;;;;;;1.42;1.33;;;;;;;2.82;62.58;94895.84;5032851;28;20072;-64
2021/01/12 10:08:25;;;;;;;1.40;1.30;;;;;;;3.01;62.81;94898.72;5030726;28;20045;-66
2021/01/12 10:10:54;;;;;;;1.70;1.60;;;;;;;3.18;63.20;94895.88;5030960;28;20030;-64
2021/01/12 10:13:20;;;;;;;1.40;1.10;;;;;;;2.62;65.09;94890.53;5030374;28;20042;-63
2021/01/12 10:15:46;;;;;;;1.55;1.45;;;;;;;2.80;66.42;94905.78;5030952;28;20040;-65
2021/01/12 10:18:12;;;;;;;2.05;1.48;;;;;;;2.31;67.18;94861.59;5032815;28;20455;-64
2021/01/12 10:20:37;;;;;;;6.15;1.30;;;;;;;2.41;67.80;94880.00;5030435;28;20029;-63
2021/01/12 10:23:02;;;;;;;1.52;1.42;;;;;;;2.41;67.76;94845.09;5029195;28;20038;-69
2021/01/12 10:25:28;;;;;;;1.60;1.27;;;;;;;2.30;68.65;94880.97;5030655;28;20411;-64
2021/01/12 10:27:55;;;;;;;0.80;0.80;;;;;;;1.75;69.98;94783.50;5028928;28;20411;-67
2021/01/12 10:30:20;;;;;;;1.17;0.93;;;;;;;2.28;69.86;94869.97;5030405;28;20028;-69
2021/01/12 10:32:47;;;;;;;1.55;1.23;;;;;;;1.89;73.25;94841.47;5030622;28;20022;-65
2021/01/12 10:35:12;;;;;;;5.28;1.50;;;;;;;1.89;74.10;94872.16;5030356;28;20045;-64
2021/01/12 10:37:38;;;;;;;2.28;0.80;;;;;;;1.73;76.94;94889.66;5027514;28;20402;-64
2021/01/12 10:40:06;;;;;;;0.90;0.90;;;;;;;0.76;81.44;94773.78;5028618;28;20041;-65
2021/01/12 10:42:32;;;;;;;1.40;1.30;;;;;;;1.55;81.01;94891.66;5027999;28;20420;-65
2021/01/12 10:44:57;;;;;;;1.50;1.10;;;;;;;1.36;82.04;94853.81;5012235;28;20033;-66
2021/01/12 10:47:23;;;;;;;1.75;1.33;;;;;;;1.42;81.97;94839.69;5027597;28;20113;-65
2021/01/12 10:49:48;;;;;;;2.28;0.75;;;;;;;1.12;83.33;94827.19;5029908;28;20124;-66
2021/01/12 10:52:14;;;;;;;0.70;0.70;;;;;;;1.21;84.66;94878.06;5029982;28;20041;-65
2021/01/12 10:54:41;;;;;;;2.08;1.33;;;;;;;1.25;85.37;94850.34;5029287;28;20036;-63
2021/01/12 10:57:09;;;;;;;3.97;0.90;;;;;;;1.11;85.14;94843.16;5031563;28;20049;-64
2021/01/12 10:59:34;;;;;;;2.13;0.95;;;;;;;0.79;85.93;94804.69;5029292;28;20151;-64
2021/01/12 11:02:01;;;;;;;4.13;1.40;;;;;;;0.51;85.07;94728.06;5028383;28;20045;-64
2021/01/12 11:04:27;;;;;;;1.70;1.15;;;;;;;1.27;85.83;94844.84;5029948;28;20088;-62
2021/01/12 11:06:55;;;;;;;1.30;0.93;;;;;;;0.97;86.00;94795.66;5030283;28;20045;-62
2021/01/12 11:09:25;;;;;;;2.20;0.68;;;;;;;1.10;86.04;94820.63;5028765;28;20029;-62
2021/01/12 11:11:51;;;;;;;2.53;1.40;;;;;;;0.72;85.57;94720.34;5031755;28;20067;-62
2021/01/12 11:14:18;;;;;;;1.30;1.20;;;;;;;1.19;84.72;94779.81;5028329;28;20034;-63
2021/01/12 11:16:45;;;;;;;2.75;1.63;;;;;;;1.34;83.98;94773.88;5029564;28;20061;-62
2021/01/12 11:19:10;;;;;;;1.17;1.08;;;;;;;1.39;84.60;94793.03;5027936;28;20533;-62
2021/01/12 11:21:45;;;;;;;3.92;1.80;;;;;;;1.39;84.55;94768.66;5029485;28;20037;-62
2021/01/12 11:24:13;;;;;;;1.05;0.98;;;;;;;1.03;84.30;94711.63;5031433;28;20075;-62
2021/01/12 11:26:40;;;;;;;2.47;1.10;;;;;;;1.49;83.31;94802.78;5029182;28;20085;-62
2021/01/12 11:29:05;;;;;;;0.90;0.70;;;;;;;1.43;83.99;94795.91;5027024;28;20057;-62
2021/01/12 11:31:31;;;;;;;1.35;0.98;;;;;;;1.13;84.05;94744.97;5029349;28;20037;-60